Main page
METAR-TAF:

METAR-TAF

Airports :

Fliegerhorst Meppen

Meppen, Germany

latitude: 52-43-24N, longitude: 007-19-35E, elevation: 21 m

Current weather observation

The report was made 22 minutes ago, at 09:20 UTC
Wind 7 kt from the East
Temperature 21°C
Humidity 43%
Pressure 1005 hPa
Visibility 10 km or more

METAR: ETWM 190920Z AUTO 08007KT 9999 // ////// 21/08 Q1005 ///

Time: 11:42 (09:42 UTC)


TAF: missing

Weather observations and forecasts of more than 4000 airports (METAR and TAF reports).

The available stations are represented by yellow and red dots on the map.

Hover mouse over dot to see the name of the station.

Then click to see weather observations and forecasts.

To change the map : click on the green buttons with a black cross to zoom in, on the green button with a dash to zoom out, or on the green arrows for adjacent maps.


METAR-TAF: